createdAt,value
2019-05-30T00:01:43.019Z,99.90
2019-05-30T00:04:10.933Z,99.90
2019-05-30T00:06:38.692Z,99.90
2019-05-30T00:09:08.001Z,99.90
2019-05-30T00:11:35.945Z,99.90
2019-05-30T00:14:04.962Z,99.90
2019-05-30T00:16:33.170Z,99.90
2019-05-30T00:19:01.051Z,99.90
2019-05-30T00:21:28.960Z,99.90
2019-05-30T00:23:57.845Z,99.90
2019-05-30T00:26:25.766Z,99.90
2019-05-30T00:28:53.705Z,99.90
2019-05-30T00:31:21.577Z,99.90
2019-05-30T00:33:49.430Z,99.90
2019-05-30T00:36:17.204Z,99.90
2019-05-30T00:38:45.009Z,99.90
2019-05-30T00:41:12.833Z,99.90
2019-05-30T00:43:40.716Z,99.90
2019-05-30T00:46:08.663Z,99.90
2019-05-30T00:48:36.610Z,99.90
2019-05-30T00:51:04.684Z,99.90
2019-05-30T00:53:32.680Z,99.90
2019-05-30T00:56:01.527Z,99.90
2019-05-30T00:58:29.946Z,99.90
2019-05-30T01:00:58.995Z,99.90
2019-05-30T01:03:27.107Z,99.90
2019-05-30T01:05:55.036Z,99.90
2019-05-30T01:08:22.900Z,99.90
2019-05-30T01:10:50.790Z,99.90
2019-05-30T01:13:18.648Z,99.90
2019-05-30T01:15:46.403Z,99.90
2019-05-30T01:18:14.259Z,99.90
2019-05-30T01:20:43.321Z,99.90
2019-05-30T01:23:11.175Z,99.90
2019-05-30T01:25:39.087Z,99.90
2019-05-30T01:28:07.875Z,99.90
2019-05-30T01:30:35.796Z,99.90
2019-05-30T01:33:03.887Z,99.90
2019-05-30T01:35:31.740Z,99.90
2019-05-30T01:37:59.721Z,99.90
2019-05-30T01:40:27.613Z,99.90
2019-05-30T01:42:55.484Z,99.90
2019-05-30T01:45:23.404Z,99.90
2019-05-30T01:47:51.306Z,99.90
2019-05-30T01:50:19.610Z,99.90
2019-05-30T01:52:47.523Z,99.90
2019-05-30T01:55:15.387Z,99.90
2019-05-30T01:57:43.284Z,99.90
2019-05-30T02:00:20.643Z,99.90
2019-05-30T02:02:44.322Z,99.90
2019-05-30T02:05:12.599Z,99.90
2019-05-30T02:07:40.500Z,99.90
2019-05-30T02:10:10.101Z,99.90
2019-05-30T02:12:38.214Z,99.90
2019-05-30T02:15:07.655Z,99.90
2019-05-30T02:17:35.668Z,99.90
2019-05-30T02:20:05.804Z,99.90
2019-05-30T02:22:33.832Z,99.90
2019-05-30T02:25:01.987Z,99.90
2019-05-30T02:27:29.943Z,99.90
2019-05-30T02:29:57.806Z,99.90
2019-05-30T02:32:25.699Z,99.90
2019-05-30T02:34:53.535Z,99.90
2019-05-30T02:37:21.432Z,99.90
2019-05-30T02:39:49.258Z,99.90
2019-05-30T02:42:17.128Z,99.90
2019-05-30T02:44:45.007Z,99.90
2019-05-30T02:47:12.883Z,99.90
2019-05-30T02:49:40.716Z,99.90
2019-05-30T02:52:08.626Z,99.90
2019-05-30T02:54:36.400Z,99.90
2019-05-30T02:57:05.528Z,99.90
2019-05-30T02:59:33.810Z,99.90
2019-05-30T03:02:05.283Z,99.90
2019-05-30T03:04:31.247Z,99.90
2019-05-30T03:06:59.170Z,99.90
2019-05-30T03:09:27.123Z,99.90
2019-05-30T03:11:55.028Z,99.90
2019-05-30T03:14:22.820Z,99.90
2019-05-30T03:16:50.625Z,99.90
2019-05-30T03:19:18.420Z,99.90
2019-05-30T03:21:46.299Z,99.90
2019-05-30T03:24:14.468Z,99.90
2019-05-30T03:26:42.522Z,99.90
2019-05-30T03:29:12.515Z,99.90
2019-05-30T03:31:40.471Z,99.90
2019-05-30T03:34:14.015Z,99.90
2019-05-30T03:36:37.818Z,99.90
2019-05-30T03:39:07.698Z,99.90
2019-05-30T03:41:36.363Z,99.90
2019-05-30T03:44:05.857Z,99.90
2019-05-30T03:46:35.595Z,99.90
2019-05-30T03:49:04.357Z,99.90
2019-05-30T03:51:34.049Z,99.90
2019-05-30T03:54:04.762Z,99.90
2019-05-30T03:56:43.564Z,99.90
2019-05-30T03:59:22.021Z,99.90
2019-05-30T04:02:03.528Z,99.90
2019-05-30T04:04:32.826Z,99.90
2019-05-30T04:07:06.684Z,99.90
2019-05-30T04:09:36.027Z,99.90
2019-05-30T04:12:07.573Z,99.90
2019-05-30T04:14:36.575Z,99.90
2019-05-30T04:17:04.441Z,99.90
2019-05-30T04:19:32.377Z,99.90
2019-05-30T04:22:00.204Z,99.90
2019-05-30T04:24:28.316Z,99.90
2019-05-30T04:26:56.368Z,99.90
2019-05-30T04:29:24.388Z,99.90
2019-05-30T04:31:52.434Z,99.90
2019-05-30T04:34:20.282Z,99.90
2019-05-30T04:36:52.997Z,99.90
2019-05-30T04:39:19.076Z,99.90
2019-05-30T04:41:47.044Z,99.90
2019-05-30T04:44:16.383Z,99.90
2019-05-30T04:46:44.204Z,99.90
2019-05-30T04:49:12.738Z,99.90
2019-05-30T04:51:41.660Z,99.90
2019-05-30T04:54:10.387Z,99.90
2019-05-30T04:56:38.878Z,99.90
2019-05-30T04:59:06.778Z,99.90
2019-05-30T05:01:34.529Z,99.90
2019-05-30T05:04:02.418Z,99.90
2019-05-30T05:06:30.313Z,99.90
2019-05-30T05:08:58.329Z,99.90
2019-05-30T05:11:26.273Z,99.90
2019-05-30T05:13:54.300Z,99.90
2019-05-30T05:16:33.884Z,99.90
2019-05-30T05:18:51.657Z,99.90
2019-05-30T05:21:19.549Z,99.90
2019-05-30T05:23:47.288Z,99.90
2019-05-30T05:26:17.410Z,99.90
2019-05-30T05:28:44.731Z,99.90
2019-05-30T05:31:12.501Z,99.90
2019-05-30T05:33:53.671Z,99.90
2019-05-30T05:36:09.880Z,99.90
2019-05-30T05:38:37.859Z,99.90
2019-05-30T05:41:05.835Z,99.90
2019-05-30T05:43:33.703Z,99.90
2019-05-30T05:46:01.622Z,99.90
2019-05-30T05:48:29.541Z,99.90
2019-05-30T05:50:57.484Z,99.90
2019-05-30T05:53:25.308Z,99.90
2019-05-30T05:55:53.266Z,99.90
2019-05-30T05:58:21.144Z,99.90
2019-05-30T06:00:49.065Z,99.90
2019-05-30T06:03:18.809Z,99.90
2019-05-30T06:05:52.877Z,99.90
2019-05-30T06:08:17.237Z,99.90
2019-05-30T06:10:46.537Z,99.90
2019-05-30T06:13:14.425Z,99.90
2019-05-30T06:15:42.346Z,99.90
2019-05-30T06:18:10.289Z,99.90
2019-05-30T06:20:38.309Z,99.90
2019-05-30T06:23:06.415Z,99.90
2019-05-30T06:25:34.294Z,99.90
2019-05-30T06:28:02.313Z,99.90
2019-05-30T06:30:30.326Z,99.90
2019-05-30T06:32:58.136Z,99.90
2019-05-30T06:35:27.464Z,99.90
2019-05-30T06:37:55.522Z,99.90
2019-05-30T06:40:25.526Z,99.90
2019-05-30T06:42:53.668Z,99.90
2019-05-30T06:45:24.064Z,99.90
2019-05-30T06:47:51.878Z,99.90
2019-05-30T06:50:20.631Z,99.90
2019-05-30T06:52:48.852Z,99.90
2019-05-30T06:55:16.820Z,99.90
2019-05-30T06:57:44.814Z,99.90
2019-05-30T07:00:13.229Z,99.90
2019-05-30T07:02:41.144Z,99.90
2019-05-30T07:05:09.771Z,99.90
2019-05-30T07:07:38.356Z,99.90
2019-05-30T07:10:06.683Z,99.90
2019-05-30T07:12:34.689Z,99.90
2019-05-30T07:15:02.658Z,99.90
2019-05-30T07:17:31.870Z,99.90
2019-05-30T07:19:59.761Z,99.90
2019-05-30T07:22:28.168Z,99.90
2019-05-30T07:24:56.071Z,99.90
2019-05-30T07:27:23.999Z,99.90
2019-05-30T07:29:51.890Z,99.90
2019-05-30T07:32:20.927Z,99.90
2019-05-30T07:34:48.902Z,99.90
2019-05-30T07:37:16.854Z,99.90
2019-05-30T07:39:44.718Z,99.90
2019-05-30T07:42:12.584Z,99.80
2019-05-30T07:44:40.553Z,99.40
2019-05-30T07:47:08.633Z,98.10
2019-05-30T07:49:36.597Z,95.50
2019-05-30T07:52:04.540Z,93.50
2019-05-30T07:54:33.032Z,89.70
2019-05-30T07:57:01.188Z,84.40
2019-05-30T07:59:30.300Z,81.50
2019-05-30T08:01:58.264Z,81.20
2019-05-30T08:04:27.373Z,82.70
2019-05-30T08:06:55.617Z,84.50
2019-05-30T08:09:24.611Z,83.80
2019-05-30T08:11:52.588Z,80.90
2019-05-30T08:14:20.443Z,81.40
2019-05-30T08:16:48.554Z,78.50
2019-05-30T08:19:16.431Z,77.70
2019-05-30T08:21:44.367Z,77.00
2019-05-30T08:24:12.333Z,77.40
2019-05-30T08:26:40.401Z,76.40
2019-05-30T08:29:08.468Z,70.80
2019-05-30T08:31:36.926Z,70.00
2019-05-30T08:34:05.233Z,70.20
2019-05-30T08:36:33.214Z,71.00
2019-05-30T08:39:01.172Z,71.70
2019-05-30T08:41:29.171Z,69.70
2019-05-30T08:43:57.047Z,67.90
2019-05-30T08:46:25.255Z,66.80
2019-05-30T08:48:54.222Z,66.80
2019-05-30T08:51:22.189Z,66.60
2019-05-30T08:53:50.262Z,67.20
2019-05-30T08:56:18.230Z,65.20
2019-05-30T08:58:46.105Z,64.20
2019-05-30T09:01:15.160Z,61.60
2019-05-30T09:03:44.154Z,62.80
2019-05-30T09:06:12.565Z,63.30
2019-05-30T09:08:40.699Z,61.10
2019-05-30T09:11:08.641Z,61.40
2019-05-30T09:13:37.721Z,63.00
2019-05-30T09:16:06.319Z,60.70
2019-05-30T09:18:34.285Z,61.30
2019-05-30T09:21:02.286Z,60.50
2019-05-30T09:23:30.283Z,60.20
2019-05-30T09:25:58.404Z,58.30
2019-05-30T09:28:26.384Z,58.90
2019-05-30T09:30:54.510Z,58.50
2019-05-30T09:33:22.501Z,59.00
2019-05-30T09:35:51.423Z,59.70
2019-05-30T09:38:19.495Z,59.00
2019-05-30T09:40:47.983Z,58.50
2019-05-30T09:43:16.216Z,57.70
2019-05-30T09:45:44.262Z,57.80
2019-05-30T09:48:12.365Z,56.80
2019-05-30T09:50:42.030Z,57.60
2019-05-30T09:53:10.418Z,57.30
2019-05-30T09:55:43.263Z,56.50
2019-05-30T09:58:14.642Z,57.20
2019-05-30T10:00:44.825Z,55.20
2019-05-30T10:03:13.607Z,56.10
2019-05-30T10:05:43.276Z,55.40
2019-05-30T10:08:13.410Z,55.50
2019-05-30T10:10:41.269Z,54.00
2019-05-30T10:13:09.082Z,53.70
2019-05-30T10:15:37.632Z,54.00
2019-05-30T10:18:05.683Z,55.40
2019-05-30T10:20:34.939Z,53.60
2019-05-30T10:23:03.800Z,52.30
2019-05-30T10:25:32.763Z,53.30
2019-05-30T10:28:00.761Z,54.20
2019-05-30T10:30:30.151Z,54.40
2019-05-30T10:32:58.207Z,53.50
2019-05-30T10:35:29.665Z,54.10
2019-05-30T10:37:56.952Z,54.40
2019-05-30T10:40:25.576Z,52.80
2019-05-30T10:42:54.999Z,53.10
2019-05-30T10:45:23.240Z,53.70
2019-05-30T10:47:51.437Z,54.70
2019-05-30T10:50:24.627Z,54.20
2019-05-30T10:52:53.631Z,51.30
2019-05-30T10:55:21.982Z,52.40
2019-05-30T10:57:50.094Z,52.30
2019-05-30T11:00:19.614Z,53.00
2019-05-30T11:02:49.215Z,53.00
2019-05-30T11:05:18.554Z,52.90
2019-05-30T11:08:01.974Z,52.10
2019-05-30T11:10:28.308Z,52.90
2019-05-30T11:13:05.158Z,52.10
2019-05-30T11:15:26.154Z,51.80
2019-05-30T11:17:54.831Z,51.50
2019-05-30T11:20:23.713Z,51.70
2019-05-30T11:22:53.055Z,51.70
2019-05-30T11:25:21.399Z,51.50
2019-05-30T11:27:50.651Z,51.70
2019-05-30T11:30:18.560Z,50.80
2019-05-30T11:32:46.456Z,51.40
2019-05-30T11:35:14.419Z,49.10
2019-05-30T11:37:42.599Z,49.00
2019-05-30T11:40:10.912Z,50.30
2019-05-30T11:42:39.284Z,50.20
2019-05-30T11:45:07.676Z,50.30
2019-05-30T11:47:35.550Z,50.10
2019-05-30T11:50:04.849Z,50.00
2019-05-30T11:52:33.640Z,49.30
2019-05-30T11:55:01.625Z,49.00
2019-05-30T11:57:30.026Z,49.90
2019-05-30T11:59:58.345Z,49.10
2019-05-30T12:02:26.519Z,48.90
2019-05-30T12:04:54.690Z,48.30
2019-05-30T12:07:35.883Z,48.00
2019-05-30T12:09:52.867Z,49.10
2019-05-30T12:12:21.075Z,47.20
2019-05-30T12:14:49.236Z,48.10
2019-05-30T12:17:17.556Z,48.00
2019-05-30T12:19:46.754Z,47.90
2019-05-30T12:22:14.836Z,47.10
2019-05-30T12:24:43.304Z,45.10
2019-05-30T12:27:12.293Z,45.20
2019-05-30T12:29:40.314Z,45.50
2019-05-30T12:32:08.226Z,46.70
2019-05-30T12:34:36.387Z,45.80
2019-05-30T12:37:04.592Z,43.50
2019-05-30T12:39:32.493Z,43.90
2019-05-30T12:42:01.508Z,44.90
2019-05-30T12:44:29.477Z,44.50
2019-05-30T12:46:59.203Z,44.20
2019-05-30T12:49:27.167Z,44.40
2019-05-30T12:51:56.209Z,43.20
2019-05-30T12:54:25.948Z,44.40
2019-05-30T12:56:55.048Z,44.10
2019-05-30T12:59:23.068Z,41.40
2019-05-30T13:01:51.984Z,42.30
2019-05-30T13:04:20.201Z,41.80
2019-05-30T13:06:48.118Z,43.20
2019-05-30T13:09:16.666Z,43.10
2019-05-30T13:11:44.635Z,41.60
2019-05-30T13:14:12.783Z,41.90
2019-05-30T13:16:40.588Z,42.50
2019-05-30T13:19:08.880Z,42.40
2019-05-30T13:21:40.266Z,42.30
2019-05-30T13:24:08.384Z,42.70
2019-05-30T13:26:37.088Z,42.40
2019-05-30T13:29:06.367Z,41.00
2019-05-30T13:31:35.910Z,40.30
2019-05-30T13:34:04.925Z,40.70
2019-05-30T13:36:33.098Z,41.50
2019-05-30T13:39:01.232Z,42.50
2019-05-30T13:41:30.066Z,43.00
2019-05-30T13:43:57.983Z,42.40
2019-05-30T13:46:25.957Z,41.60
2019-05-30T13:48:54.595Z,41.40
2019-05-30T13:51:22.903Z,41.70
2019-05-30T13:53:51.035Z,40.40
2019-05-30T13:56:19.099Z,40.20
2019-05-30T13:58:46.943Z,41.00
2019-05-30T14:01:15.202Z,42.00
2019-05-30T14:03:43.701Z,41.50
2019-05-30T14:06:12.676Z,40.90
2019-05-30T14:08:42.023Z,40.50
2019-05-30T14:11:10.816Z,40.20
2019-05-30T14:13:41.316Z,40.00
2019-05-30T14:16:11.077Z,40.40
2019-05-30T14:18:39.220Z,40.60
2019-05-30T14:21:07.556Z,40.60
2019-05-30T14:23:36.235Z,42.40
2019-05-30T14:26:05.206Z,42.40
2019-05-30T14:28:33.505Z,42.90
2019-05-30T14:31:03.584Z,42.70
2019-05-30T14:33:32.108Z,42.60
2019-05-30T14:36:04.009Z,43.50
2019-05-30T14:38:34.093Z,44.30
2019-05-30T14:41:02.940Z,43.20
2019-05-30T14:43:31.330Z,42.70
2019-05-30T14:45:59.644Z,41.60
2019-05-30T14:48:27.764Z,41.70
2019-05-30T14:50:56.076Z,41.40
2019-05-30T14:53:25.494Z,43.00
2019-05-30T14:55:53.616Z,42.70
2019-05-30T14:58:21.636Z,42.70
2019-05-30T15:00:49.613Z,42.20
2019-05-30T15:03:19.501Z,42.00
2019-05-30T15:05:48.613Z,41.00
2019-05-30T15:08:16.871Z,41.60
2019-05-30T15:10:44.998Z,42.00
2019-05-30T15:13:13.797Z,42.20
2019-05-30T15:15:42.892Z,42.60
2019-05-30T15:18:11.448Z,43.20
2019-05-30T15:20:39.435Z,43.40
2019-05-30T15:23:07.590Z,43.70
2019-05-30T15:25:36.959Z,44.10
2019-05-30T15:28:05.960Z,43.80
2019-05-30T15:30:34.035Z,43.40
2019-05-30T15:33:01.982Z,43.10
2019-05-30T15:35:29.975Z,44.00
2019-05-30T15:37:57.956Z,44.70
2019-05-30T15:40:26.144Z,45.40
2019-05-30T15:42:54.010Z,45.80
2019-05-30T15:45:22.911Z,45.40
2019-05-30T15:47:50.937Z,45.50
2019-05-30T15:50:18.962Z,44.40
2019-05-30T15:52:46.895Z,44.70
2019-05-30T15:55:15.342Z,45.50
2019-05-30T15:57:43.434Z,45.70
2019-05-30T16:00:12.389Z,45.30
2019-05-30T16:02:42.045Z,45.50
2019-05-30T16:05:12.491Z,46.00
2019-05-30T16:07:41.666Z,46.00
2019-05-30T16:10:10.847Z,46.50
2019-05-30T16:12:39.098Z,46.60
2019-05-30T16:15:07.483Z,47.10
2019-05-30T16:17:35.503Z,47.10
2019-05-30T16:20:05.066Z,47.40
2019-05-30T16:22:32.955Z,47.50
2019-05-30T16:25:00.912Z,47.80
2019-05-30T16:27:31.115Z,47.80
2019-05-30T16:30:00.717Z,48.10
2019-05-30T16:32:29.841Z,48.50
2019-05-30T16:34:57.938Z,48.60
2019-05-30T16:37:26.795Z,48.80
2019-05-30T16:40:05.132Z,48.80
2019-05-30T16:42:26.529Z,48.90
2019-05-30T16:44:54.910Z,48.90
2019-05-30T16:47:23.954Z,48.80
2019-05-30T16:49:52.270Z,49.00
2019-05-30T16:52:21.026Z,49.10
2019-05-30T16:54:49.226Z,49.50
2019-05-30T16:57:18.600Z,49.80
2019-05-30T16:59:47.255Z,49.60
2019-05-30T17:02:16.881Z,49.40
2019-05-30T17:04:45.315Z,49.50
2019-05-30T17:07:15.497Z,49.50
2019-05-30T17:09:43.461Z,49.60
2019-05-30T17:12:11.472Z,49.70
2019-05-30T17:14:39.537Z,49.70
2019-05-30T17:17:07.665Z,49.80
2019-05-30T17:19:39.037Z,50.00
2019-05-30T17:22:05.418Z,50.60
2019-05-30T17:24:33.606Z,50.50
2019-05-30T17:27:02.748Z,50.70
2019-05-30T17:29:30.822Z,51.00
2019-05-30T17:31:58.918Z,51.20
2019-05-30T17:34:28.101Z,51.50
2019-05-30T17:36:56.199Z,51.80
2019-05-30T17:39:24.584Z,52.40
2019-05-30T17:41:52.665Z,52.30
2019-05-30T17:44:21.074Z,53.20
2019-05-30T17:46:49.093Z,53.00
2019-05-30T17:49:17.014Z,53.10
2019-05-30T17:51:45.053Z,53.20
2019-05-30T17:54:13.019Z,53.40
2019-05-30T17:56:42.222Z,53.30
2019-05-30T17:59:10.244Z,53.50
2019-05-30T18:01:40.347Z,53.60
2019-05-30T18:04:08.303Z,54.00
2019-05-30T18:06:36.259Z,54.10
2019-05-30T18:09:05.526Z,54.60
2019-05-30T18:11:33.523Z,54.70
2019-05-30T18:14:01.550Z,55.10
2019-05-30T18:16:29.523Z,55.10
2019-05-30T18:18:57.451Z,55.40
2019-05-30T18:21:25.450Z,56.00
2019-05-30T18:23:53.176Z,57.00
2019-05-30T18:26:21.505Z,56.90
2019-05-30T18:28:49.407Z,56.80
2019-05-30T18:31:17.254Z,57.40
2019-05-30T18:33:45.116Z,58.20
2019-05-30T18:36:13.131Z,58.70
2019-05-30T18:38:41.152Z,58.50
2019-05-30T18:41:11.780Z,58.80
2019-05-30T18:43:38.629Z,58.70
2019-05-30T18:46:06.855Z,59.50
2019-05-30T18:48:35.403Z,59.90
2019-05-30T18:51:03.381Z,59.90
2019-05-30T18:53:32.454Z,60.80
2019-05-30T18:56:00.529Z,60.70
2019-05-30T18:58:28.927Z,60.90
2019-05-30T19:00:57.101Z,61.20
2019-05-30T19:03:24.919Z,61.20
2019-05-30T19:05:54.248Z,61.00
2019-05-30T19:08:22.740Z,61.50
2019-05-30T19:10:50.782Z,62.00
2019-05-30T19:13:19.156Z,62.20
2019-05-30T19:15:47.249Z,61.90
2019-05-30T19:18:15.234Z,62.00
2019-05-30T19:20:43.216Z,62.30
2019-05-30T19:23:12.700Z,62.90
2019-05-30T19:25:40.749Z,62.70
2019-05-30T19:28:08.845Z,65.00
2019-05-30T19:30:40.968Z,65.00
2019-05-30T19:33:08.059Z,65.00
2019-05-30T19:35:37.539Z,64.70
2019-05-30T19:38:05.555Z,65.20
2019-05-30T19:40:33.688Z,65.40
2019-05-30T19:43:01.718Z,66.10
2019-05-30T19:45:29.993Z,69.40
2019-05-30T19:47:58.103Z,69.00
2019-05-30T19:50:26.802Z,69.30
2019-05-30T19:52:54.720Z,69.20
2019-05-30T19:55:22.721Z,69.70
2019-05-30T19:57:50.835Z,69.60
2019-05-30T20:00:19.043Z,70.10
2019-05-30T20:02:47.030Z,70.60
2019-05-30T20:05:14.971Z,71.00
2019-05-30T20:07:43.130Z,71.10
2019-05-30T20:10:11.251Z,71.60
2019-05-30T20:12:40.991Z,72.10
2019-05-30T20:15:09.555Z,72.40
2019-05-30T20:17:37.641Z,73.50
2019-05-30T20:20:09.156Z,73.50
2019-05-30T20:22:38.235Z,74.00
2019-05-30T20:25:07.347Z,74.80
2019-05-30T20:27:36.460Z,76.30
2019-05-30T20:30:08.122Z,76.40
2019-05-30T20:32:36.487Z,77.10
2019-05-30T20:35:06.693Z,78.30
2019-05-30T20:37:34.719Z,78.40
2019-05-30T20:40:02.608Z,79.10
2019-05-30T20:42:30.648Z,80.00
2019-05-30T20:44:58.518Z,80.20
2019-05-30T20:47:26.628Z,81.40
2019-05-30T20:49:54.528Z,82.40
2019-05-30T20:52:22.445Z,82.70
2019-05-30T20:54:50.444Z,84.60
2019-05-30T20:57:18.427Z,83.80
2019-05-30T20:59:47.128Z,84.30
2019-05-30T21:02:15.265Z,85.40
2019-05-30T21:04:43.177Z,86.10
2019-05-30T21:07:11.420Z,88.60
2019-05-30T21:09:40.017Z,88.40
2019-05-30T21:12:07.928Z,89.60
2019-05-30T21:14:37.244Z,90.10
2019-05-30T21:17:05.358Z,90.90
2019-05-30T21:19:33.244Z,91.40
2019-05-30T21:22:01.242Z,93.00
2019-05-30T21:24:29.385Z,92.90
2019-05-30T21:26:57.343Z,95.00
2019-05-30T21:29:25.498Z,94.20
2019-05-30T21:31:53.483Z,95.20
2019-05-30T21:34:21.706Z,97.60
2019-05-30T21:36:49.793Z,97.50
2019-05-30T21:39:17.694Z,98.20
2019-05-30T21:41:46.378Z,99.90
2019-05-30T21:44:14.383Z,99.70
2019-05-30T21:46:42.537Z,99.90
2019-05-30T21:49:10.609Z,99.90
2019-05-30T21:51:39.185Z,99.90
2019-05-30T21:54:07.234Z,99.90
2019-05-30T21:56:35.141Z,99.90
2019-05-30T21:59:04.200Z,99.90
2019-05-30T22:01:33.040Z,99.90
2019-05-30T22:04:01.000Z,99.90
2019-05-30T22:06:28.876Z,99.90
2019-05-30T22:08:56.885Z,99.90
2019-05-30T22:11:24.800Z,99.90
2019-05-30T22:13:53.957Z,99.90
2019-05-30T22:16:21.976Z,99.90
2019-05-30T22:18:50.197Z,99.90
2019-05-30T22:21:17.999Z,99.90
2019-05-30T22:23:48.115Z,99.90
2019-05-30T22:26:15.987Z,99.90
2019-05-30T22:28:44.372Z,99.90
2019-05-30T22:31:12.383Z,99.90
2019-05-30T22:33:40.229Z,99.90
2019-05-30T22:36:08.177Z,99.90
2019-05-30T22:38:36.142Z,99.90
2019-05-30T22:41:04.164Z,99.90
2019-05-30T22:43:32.037Z,99.90
2019-05-30T22:46:00.498Z,99.90
2019-05-30T22:48:28.505Z,99.90
2019-05-30T22:50:57.060Z,99.90
2019-05-30T22:53:25.108Z,99.90
2019-05-30T22:55:53.640Z,99.90
2019-05-30T22:58:21.601Z,99.90
2019-05-30T23:00:49.948Z,99.90
2019-05-30T23:03:18.033Z,99.90
2019-05-30T23:05:47.198Z,99.90
2019-05-30T23:08:15.348Z,99.90
2019-05-30T23:10:43.219Z,99.90
2019-05-30T23:13:12.391Z,99.90
2019-05-30T23:15:40.288Z,99.90
2019-05-30T23:18:08.222Z,99.90
2019-05-30T23:20:36.211Z,99.90
2019-05-30T23:23:04.655Z,99.90
2019-05-30T23:25:32.640Z,99.90
2019-05-30T23:28:00.664Z,99.90
2019-05-30T23:30:28.543Z,99.90
2019-05-30T23:32:56.386Z,99.90
2019-05-30T23:35:24.373Z,99.90
2019-05-30T23:37:53.048Z,99.90
2019-05-30T23:40:21.167Z,99.90
2019-05-30T23:42:49.150Z,99.90
2019-05-30T23:45:17.143Z,99.90
2019-05-30T23:47:45.022Z,99.90
2019-05-30T23:50:13.593Z,99.90
2019-05-30T23:52:41.481Z,99.90
2019-05-30T23:55:09.557Z,99.90
2019-05-30T23:57:37.430Z,99.90
